sensor_id;sensor_type;location;lat;lon;timestamp;temperature;humidity
74657;DHT22;63185;45.642;13.764;2023-05-29T00:01:44;22.40;52.60
74657;DHT22;63185;45.642;13.764;2023-05-29T00:04:11;22.30;52.70
74657;DHT22;63185;45.642;13.764;2023-05-29T00:06:37;22.30;52.70
74657;DHT22;63185;45.642;13.764;2023-05-29T00:09:03;22.30;52.70
74657;DHT22;63185;45.642;13.764;2023-05-29T00:11:29;22.20;52.80
74657;DHT22;63185;45.642;13.764;2023-05-29T00:13:55;22.20;52.90
74657;DHT22;63185;45.642;13.764;2023-05-29T00:16:22;22.20;52.80
74657;DHT22;63185;45.642;13.764;2023-05-29T00:18:49;22.20;53.00
74657;DHT22;63185;45.642;13.764;2023-05-29T00:21:15;22.20;52.90
74657;DHT22;63185;45.642;13.764;2023-05-29T00:23:41;22.20;53.00
74657;DHT22;63185;45.642;13.764;2023-05-29T00:26:07;22.10;53.10
74657;DHT22;63185;45.642;13.764;2023-05-29T00:28:35;22.20;53.10
74657;DHT22;63185;45.642;13.764;2023-05-29T00:31:01;22.20;53.00
74657;DHT22;63185;45.642;13.764;2023-05-29T00:33:28;22.20;53.10
74657;DHT22;63185;45.642;13.764;2023-05-29T00:35:53;22.20;53.00
74657;DHT22;63185;45.642;13.764;2023-05-29T00:38:19;22.10;53.10
74657;DHT22;63185;45.642;13.764;2023-05-29T00:40:45;22.20;53.10
74657;DHT22;63185;45.642;13.764;2023-05-29T00:43:11;22.20;52.90
74657;DHT22;63185;45.642;13.764;2023-05-29T00:45:36;22.20;52.90
74657;DHT22;63185;45.642;13.764;2023-05-29T00:48:03;22.20;52.90
74657;DHT22;63185;45.642;13.764;2023-05-29T00:50:30;22.20;52.80
74657;DHT22;63185;45.642;13.764;2023-05-29T00:52:56;22.20;52.70
74657;DHT22;63185;45.642;13.764;2023-05-29T00:55:22;22.20;52.70
74657;DHT22;63185;45.642;13.764;2023-05-29T00:57:49;22.30;52.90
74657;DHT22;63185;45.642;13.764;2023-05-29T01:00:16;22.10;52.90
74657;DHT22;63185;45.642;13.764;2023-05-29T01:02:43;22.10;52.90
74657;DHT22;63185;45.642;13.764;2023-05-29T01:05:13;22.10;52.90
74657;DHT22;63185;45.642;13.764;2023-05-29T01:07:41;22.10;53.10
74657;DHT22;63185;45.642;13.764;2023-05-29T01:10:08;22.10;53.20
74657;DHT22;63185;45.642;13.764;2023-05-29T01:12:45;22.00;53.20
74657;DHT22;63185;45.642;13.764;2023-05-29T01:18:12;22.00;53.10
74657;DHT22;63185;45.642;13.764;2023-05-29T01:26:12;21.90;53.20
74657;DHT22;63185;45.642;13.764;2023-05-29T01:28:46;21.90;53.10
74657;DHT22;63185;45.642;13.764;2023-05-29T01:31:13;21.90;52.90
74657;DHT22;63185;45.642;13.764;2023-05-29T01:33:40;21.90;52.80
74657;DHT22;63185;45.642;13.764;2023-05-29T01:36:08;21.90;52.70
74657;DHT22;63185;45.642;13.764;2023-05-29T01:38:34;22.00;52.80
74657;DHT22;63185;45.642;13.764;2023-05-29T01:41:01;21.90;52.30
74657;DHT22;63185;45.642;13.764;2023-05-29T01:43:27;22.00;52.30
74657;DHT22;63185;45.642;13.764;2023-05-29T01:45:53;22.00;52.20
74657;DHT22;63185;45.642;13.764;2023-05-29T01:48:20;22.00;52.10
74657;DHT22;63185;45.642;13.764;2023-05-29T01:50:47;22.00;52.10
74657;DHT22;63185;45.642;13.764;2023-05-29T01:53:14;22.10;51.90
74657;DHT22;63185;45.642;13.764;2023-05-29T01:55:40;22.00;51.90
74657;DHT22;63185;45.642;13.764;2023-05-29T01:58:07;22.00;52.00
74657;DHT22;63185;45.642;13.764;2023-05-29T02:00:33;22.00;52.00
74657;DHT22;63185;45.642;13.764;2023-05-29T02:02:59;22.00;52.20
74657;DHT22;63185;45.642;13.764;2023-05-29T02:05:24;22.00;52.00
74657;DHT22;63185;45.642;13.764;2023-05-29T02:07:50;22.10;51.90
74657;DHT22;63185;45.642;13.764;2023-05-29T02:10:16;22.00;51.90
74657;DHT22;63185;45.642;13.764;2023-05-29T02:12:41;22.10;52.00
74657;DHT22;63185;45.642;13.764;2023-05-29T02:15:07;22.00;52.10
74657;DHT22;63185;45.642;13.764;2023-05-29T02:17:33;22.00;51.90
74657;DHT22;63185;45.642;13.764;2023-05-29T02:19:59;22.00;52.00
74657;DHT22;63185;45.642;13.764;2023-05-29T02:22:25;21.90;52.30
74657;DHT22;63185;45.642;13.764;2023-05-29T02:24:51;21.90;52.20
74657;DHT22;63185;45.642;13.764;2023-05-29T02:27:16;21.80;52.20
74657;DHT22;63185;45.642;13.764;2023-05-29T02:29:42;21.80;52.20
74657;DHT22;63185;45.642;13.764;2023-05-29T02:32:08;21.70;52.40
74657;DHT22;63185;45.642;13.764;2023-05-29T02:34:33;21.80;52.30
74657;DHT22;63185;45.642;13.764;2023-05-29T02:36:59;21.80;52.60
74657;DHT22;63185;45.642;13.764;2023-05-29T02:39:25;21.70;52.50
74657;DHT22;63185;45.642;13.764;2023-05-29T02:41:51;21.70;52.50
74657;DHT22;63185;45.642;13.764;2023-05-29T02:44:16;21.70;52.60
74657;DHT22;63185;45.642;13.764;2023-05-29T02:46:42;21.60;52.80
74657;DHT22;63185;45.642;13.764;2023-05-29T02:49:08;21.60;52.90
74657;DHT22;63185;45.642;13.764;2023-05-29T02:51:33;21.60;52.70
74657;DHT22;63185;45.642;13.764;2023-05-29T02:53:59;21.50;52.70
74657;DHT22;63185;45.642;13.764;2023-05-29T02:56:25;21.50;52.60
74657;DHT22;63185;45.642;13.764;2023-05-29T02:58:51;21.60;52.40
74657;DHT22;63185;45.642;13.764;2023-05-29T03:01:17;21.60;52.40
74657;DHT22;63185;45.642;13.764;2023-05-29T03:03:43;21.60;52.40
74657;DHT22;63185;45.642;13.764;2023-05-29T03:06:09;21.60;52.50
74657;DHT22;63185;45.642;13.764;2023-05-29T03:08:36;21.60;52.70
74657;DHT22;63185;45.642;13.764;2023-05-29T03:11:12;21.60;52.30
74657;DHT22;63185;45.642;13.764;2023-05-29T03:13:39;21.50;52.60
74657;DHT22;63185;45.642;13.764;2023-05-29T03:16:04;21.50;52.80
74657;DHT22;63185;45.642;13.764;2023-05-29T03:18:30;21.50;52.60
74657;DHT22;63185;45.642;13.764;2023-05-29T03:20:57;21.60;52.20
74657;DHT22;63185;45.642;13.764;2023-05-29T03:23:22;21.60;52.30
74657;DHT22;63185;45.642;13.764;2023-05-29T03:25:48;21.50;52.40
74657;DHT22;63185;45.642;13.764;2023-05-29T03:28:14;21.60;52.20
74657;DHT22;63185;45.642;13.764;2023-05-29T03:30:40;21.60;52.20
74657;DHT22;63185;45.642;13.764;2023-05-29T03:33:06;21.60;51.80
74657;DHT22;63185;45.642;13.764;2023-05-29T03:35:31;21.60;52.00
74657;DHT22;63185;45.642;13.764;2023-05-29T03:37:57;21.70;51.70
74657;DHT22;63185;45.642;13.764;2023-05-29T03:40:23;21.70;51.30
74657;DHT22;63185;45.642;13.764;2023-05-29T03:42:49;21.80;51.40
74657;DHT22;63185;45.642;13.764;2023-05-29T03:45:14;21.80;51.30
74657;DHT22;63185;45.642;13.764;2023-05-29T03:47:40;21.90;51.00
74657;DHT22;63185;45.642;13.764;2023-05-29T03:50:06;22.00;50.60
74657;DHT22;63185;45.642;13.764;2023-05-29T03:52:33;22.10;50.50
74657;DHT22;63185;45.642;13.764;2023-05-29T03:54:58;22.10;50.30
74657;DHT22;63185;45.642;13.764;2023-05-29T03:57:24;22.10;49.80
74657;DHT22;63185;45.642;13.764;2023-05-29T03:59:50;22.10;49.90
74657;DHT22;63185;45.642;13.764;2023-05-29T04:02:15;22.20;49.80
74657;DHT22;63185;45.642;13.764;2023-05-29T04:04:41;22.20;50.00
74657;DHT22;63185;45.642;13.764;2023-05-29T04:07:08;22.20;50.00
74657;DHT22;63185;45.642;13.764;2023-05-29T04:09:34;22.20;49.80
74657;DHT22;63185;45.642;13.764;2023-05-29T04:12:00;22.30;49.60
74657;DHT22;63185;45.642;13.764;2023-05-29T04:14:28;22.20;49.90
74657;DHT22;63185;45.642;13.764;2023-05-29T04:16:53;22.30;50.10
74657;DHT22;63185;45.642;13.764;2023-05-29T04:19:19;22.30;49.80
74657;DHT22;63185;45.642;13.764;2023-05-29T04:21:46;22.30;49.80
74657;DHT22;63185;45.642;13.764;2023-05-29T04:24:14;22.20;50.00
74657;DHT22;63185;45.642;13.764;2023-05-29T04:26:39;22.20;50.10
74657;DHT22;63185;45.642;13.764;2023-05-29T04:29:11;22.20;50.00
74657;DHT22;63185;45.642;13.764;2023-05-29T04:31:38;22.20;50.20
74657;DHT22;63185;45.642;13.764;2023-05-29T04:34:04;22.20;50.60
74657;DHT22;63185;45.642;13.764;2023-05-29T04:36:30;22.20;50.60
74657;DHT22;63185;45.642;13.764;2023-05-29T04:38:58;22.20;50.50
74657;DHT22;63185;45.642;13.764;2023-05-29T04:41:24;22.30;50.50
74657;DHT22;63185;45.642;13.764;2023-05-29T04:43:55;22.30;50.80
74657;DHT22;63185;45.642;13.764;2023-05-29T04:46:22;22.30;50.80
74657;DHT22;63185;45.642;13.764;2023-05-29T04:48:50;22.40;50.70
74657;DHT22;63185;45.642;13.764;2023-05-29T04:51:22;22.30;51.50
74657;DHT22;63185;45.642;13.764;2023-05-29T04:53:49;22.40;50.90
74657;DHT22;63185;45.642;13.764;2023-05-29T04:56:17;22.50;50.80
74657;DHT22;63185;45.642;13.764;2023-05-29T04:58:44;22.60;50.60
74657;DHT22;63185;45.642;13.764;2023-05-29T05:01:10;22.60;50.70
74657;DHT22;63185;45.642;13.764;2023-05-29T05:03:43;22.60;50.70
74657;DHT22;63185;45.642;13.764;2023-05-29T05:06:09;22.60;51.00
74657;DHT22;63185;45.642;13.764;2023-05-29T05:08:35;22.50;51.20
74657;DHT22;63185;45.642;13.764;2023-05-29T05:11:01;22.60;51.30
74657;DHT22;63185;45.642;13.764;2023-05-29T05:13:27;22.60;51.30
74657;DHT22;63185;45.642;13.764;2023-05-29T05:15:53;22.60;51.20
74657;DHT22;63185;45.642;13.764;2023-05-29T05:18:19;22.60;51.40
74657;DHT22;63185;45.642;13.764;2023-05-29T05:20:46;22.70;51.10
74657;DHT22;63185;45.642;13.764;2023-05-29T05:23:12;22.70;51.20
74657;DHT22;63185;45.642;13.764;2023-05-29T05:25:37;22.70;51.10
74657;DHT22;63185;45.642;13.764;2023-05-29T05:28:04;22.70;51.20
74657;DHT22;63185;45.642;13.764;2023-05-29T05:30:30;22.80;51.20
74657;DHT22;63185;45.642;13.764;2023-05-29T05:32:56;22.80;50.90
74657;DHT22;63185;45.642;13.764;2023-05-29T05:35:22;22.90;51.10
74657;DHT22;63185;45.642;13.764;2023-05-29T05:37:48;22.90;51.00
74657;DHT22;63185;45.642;13.764;2023-05-29T05:40:14;23.00;50.90
74657;DHT22;63185;45.642;13.764;2023-05-29T05:42:40;23.10;50.80
74657;DHT22;63185;45.642;13.764;2023-05-29T05:45:06;23.10;50.70
74657;DHT22;63185;45.642;13.764;2023-05-29T05:47:32;23.20;50.10
74657;DHT22;63185;45.642;13.764;2023-05-29T05:49:58;23.20;50.00
74657;DHT22;63185;45.642;13.764;2023-05-29T05:52:25;23.30;50.10
74657;DHT22;63185;45.642;13.764;2023-05-29T05:54:51;23.30;50.00
74657;DHT22;63185;45.642;13.764;2023-05-29T05:57:17;23.40;50.00
74657;DHT22;63185;45.642;13.764;2023-05-29T05:59:43;23.40;50.10
74657;DHT22;63185;45.642;13.764;2023-05-29T06:02:09;23.50;49.80
74657;DHT22;63185;45.642;13.764;2023-05-29T06:04:34;23.60;49.90
74657;DHT22;63185;45.642;13.764;2023-05-29T06:07:01;23.70;49.50
74657;DHT22;63185;45.642;13.764;2023-05-29T06:09:26;23.70;49.60
74657;DHT22;63185;45.642;13.764;2023-05-29T06:11:53;23.70;49.30
74657;DHT22;63185;45.642;13.764;2023-05-29T06:14:19;23.70;49.00
74657;DHT22;63185;45.642;13.764;2023-05-29T06:16:45;23.90;48.80
74657;DHT22;63185;45.642;13.764;2023-05-29T06:19:11;23.90;48.70
74657;DHT22;63185;45.642;13.764;2023-05-29T06:21:37;23.90;48.50
74657;DHT22;63185;45.642;13.764;2023-05-29T06:24:03;23.90;48.80
74657;DHT22;63185;45.642;13.764;2023-05-29T06:26:28;23.90;49.00
74657;DHT22;63185;45.642;13.764;2023-05-29T06:28:54;24.00;48.40
74657;DHT22;63185;45.642;13.764;2023-05-29T06:31:20;24.10;48.10
74657;DHT22;63185;45.642;13.764;2023-05-29T06:33:46;24.10;48.20
74657;DHT22;63185;45.642;13.764;2023-05-29T06:36:12;24.20;48.20
74657;DHT22;63185;45.642;13.764;2023-05-29T06:38:38;24.30;47.80
74657;DHT22;63185;45.642;13.764;2023-05-29T06:41:04;24.40;47.50
74657;DHT22;63185;45.642;13.764;2023-05-29T06:43:30;24.50;47.30
74657;DHT22;63185;45.642;13.764;2023-05-29T06:45:56;24.60;47.30
74657;DHT22;63185;45.642;13.764;2023-05-29T06:48:21;24.60;47.60
74657;DHT22;63185;45.642;13.764;2023-05-29T06:50:50;24.60;46.90
74657;DHT22;63185;45.642;13.764;2023-05-29T06:53:16;24.70;47.00
74657;DHT22;63185;45.642;13.764;2023-05-29T06:55:41;24.80;46.80
74657;DHT22;63185;45.642;13.764;2023-05-29T06:58:07;24.80;46.50
74657;DHT22;63185;45.642;13.764;2023-05-29T07:00:33;24.90;46.50
74657;DHT22;63185;45.642;13.764;2023-05-29T07:02:59;24.90;46.60
74657;DHT22;63185;45.642;13.764;2023-05-29T07:05:26;25.10;45.20
74657;DHT22;63185;45.642;13.764;2023-05-29T07:07:52;25.20;45.20
74657;DHT22;63185;45.642;13.764;2023-05-29T07:10:17;25.20;45.70
74657;DHT22;63185;45.642;13.764;2023-05-29T07:12:43;25.40;45.00
74657;DHT22;63185;45.642;13.764;2023-05-29T07:15:09;25.30;44.80
74657;DHT22;63185;45.642;13.764;2023-05-29T07:17:35;25.50;44.50
74657;DHT22;63185;45.642;13.764;2023-05-29T07:20:01;25.60;44.20
74657;DHT22;63185;45.642;13.764;2023-05-29T07:22:26;25.60;44.70
74657;DHT22;63185;45.642;13.764;2023-05-29T07:24:52;25.60;44.60
74657;DHT22;63185;45.642;13.764;2023-05-29T07:27:18;25.70;44.80
74657;DHT22;63185;45.642;13.764;2023-05-29T07:29:44;25.70;44.00
74657;DHT22;63185;45.642;13.764;2023-05-29T07:32:09;25.90;44.50
74657;DHT22;63185;45.642;13.764;2023-05-29T07:34:36;26.00;43.70
74657;DHT22;63185;45.642;13.764;2023-05-29T07:37:02;26.00;43.40
74657;DHT22;63185;45.642;13.764;2023-05-29T07:39:30;26.00;43.70
74657;DHT22;63185;45.642;13.764;2023-05-29T07:41:56;26.00;44.10
74657;DHT22;63185;45.642;13.764;2023-05-29T07:44:22;26.00;43.50
74657;DHT22;63185;45.642;13.764;2023-05-29T07:46:47;26.00;43.10
74657;DHT22;63185;45.642;13.764;2023-05-29T07:49:13;26.10;43.30
74657;DHT22;63185;45.642;13.764;2023-05-29T07:51:40;26.30;42.70
74657;DHT22;63185;45.642;13.764;2023-05-29T07:54:05;26.20;43.50
74657;DHT22;63185;45.642;13.764;2023-05-29T07:56:31;26.30;42.50
74657;DHT22;63185;45.642;13.764;2023-05-29T07:58:59;26.20;43.10
74657;DHT22;63185;45.642;13.764;2023-05-29T08:01:25;26.30;42.70
74657;DHT22;63185;45.642;13.764;2023-05-29T08:03:52;26.50;42.90
74657;DHT22;63185;45.642;13.764;2023-05-29T08:06:18;26.60;42.50
74657;DHT22;63185;45.642;13.764;2023-05-29T08:08:44;26.60;42.70
74657;DHT22;63185;45.642;13.764;2023-05-29T08:11:10;26.70;42.70
74657;DHT22;63185;45.642;13.764;2023-05-29T08:13:36;26.80;42.30
74657;DHT22;63185;45.642;13.764;2023-05-29T08:16:05;26.90;41.70
74657;DHT22;63185;45.642;13.764;2023-05-29T08:18:31;27.00;41.20
74657;DHT22;63185;45.642;13.764;2023-05-29T08:20:58;27.00;40.90
74657;DHT22;63185;45.642;13.764;2023-05-29T08:23:24;26.90;41.30
74657;DHT22;63185;45.642;13.764;2023-05-29T08:25:50;27.00;40.50
74657;DHT22;63185;45.642;13.764;2023-05-29T08:28:16;26.90;40.70
74657;DHT22;63185;45.642;13.764;2023-05-29T08:30:42;27.10;40.40
74657;DHT22;63185;45.642;13.764;2023-05-29T08:33:07;27.20;40.50
74657;DHT22;63185;45.642;13.764;2023-05-29T08:35:33;27.20;40.20
74657;DHT22;63185;45.642;13.764;2023-05-29T08:37:59;27.30;40.00
74657;DHT22;63185;45.642;13.764;2023-05-29T08:40:25;27.30;40.40
74657;DHT22;63185;45.642;13.764;2023-05-29T08:42:57;27.40;39.50
74657;DHT22;63185;45.642;13.764;2023-05-29T08:45:24;27.50;38.90
74657;DHT22;63185;45.642;13.764;2023-05-29T08:47:53;27.60;38.80
74657;DHT22;63185;45.642;13.764;2023-05-29T08:50:21;27.50;38.50
74657;DHT22;63185;45.642;13.764;2023-05-29T08:52:47;27.30;38.20
74657;DHT22;63185;45.642;13.764;2023-05-29T08:55:16;27.40;37.80
74657;DHT22;63185;45.642;13.764;2023-05-29T08:57:42;27.50;37.50
74657;DHT22;63185;45.642;13.764;2023-05-29T09:00:10;27.40;38.50
74657;DHT22;63185;45.642;13.764;2023-05-29T09:02:39;27.50;38.00
74657;DHT22;63185;45.642;13.764;2023-05-29T09:05:06;27.60;37.20
74657;DHT22;63185;45.642;13.764;2023-05-29T09:07:32;27.70;36.70
74657;DHT22;63185;45.642;13.764;2023-05-29T09:09:59;27.80;37.10
74657;DHT22;63185;45.642;13.764;2023-05-29T09:12:26;27.80;36.90
74657;DHT22;63185;45.642;13.764;2023-05-29T09:14:52;27.80;37.60
74657;DHT22;63185;45.642;13.764;2023-05-29T09:17:17;27.80;36.40
74657;DHT22;63185;45.642;13.764;2023-05-29T09:19:43;28.00;35.60
74657;DHT22;63185;45.642;13.764;2023-05-29T09:22:14;28.10;35.20
74657;DHT22;63185;45.642;13.764;2023-05-29T09:24:40;28.10;35.20
74657;DHT22;63185;45.642;13.764;2023-05-29T09:27:08;28.00;35.00
74657;DHT22;63185;45.642;13.764;2023-05-29T09:29:41;28.10;35.60
74657;DHT22;63185;45.642;13.764;2023-05-29T09:32:14;28.10;34.30
74657;DHT22;63185;45.642;13.764;2023-05-29T09:34:42;28.20;35.20
74657;DHT22;63185;45.642;13.764;2023-05-29T09:37:08;28.20;34.60
74657;DHT22;63185;45.642;13.764;2023-05-29T09:39:45;28.30;34.00
74657;DHT22;63185;45.642;13.764;2023-05-29T09:42:15;28.40;34.70
74657;DHT22;63185;45.642;13.764;2023-05-29T09:44:42;28.30;34.90
74657;DHT22;63185;45.642;13.764;2023-05-29T09:47:08;28.20;35.10
74657;DHT22;63185;45.642;13.764;2023-05-29T09:49:35;28.20;35.20
74657;DHT22;63185;45.642;13.764;2023-05-29T09:52:05;28.30;35.80
74657;DHT22;63185;45.642;13.764;2023-05-29T09:54:35;28.50;34.80
74657;DHT22;63185;45.642;13.764;2023-05-29T09:57:03;28.50;35.40
74657;DHT22;63185;45.642;13.764;2023-05-29T09:59:31;28.50;33.70
74657;DHT22;63185;45.642;13.764;2023-05-29T10:02:02;28.50;33.00
74657;DHT22;63185;45.642;13.764;2023-05-29T10:04:30;28.40;32.70
74657;DHT22;63185;45.642;13.764;2023-05-29T10:07:03;28.50;33.10
74657;DHT22;63185;45.642;13.764;2023-05-29T10:09:30;28.60;34.00
74657;DHT22;63185;45.642;13.764;2023-05-29T10:12:01;28.50;33.20
74657;DHT22;63185;45.642;13.764;2023-05-29T10:14:31;28.50;33.60
74657;DHT22;63185;45.642;13.764;2023-05-29T10:17:01;28.50;33.10
74657;DHT22;63185;45.642;13.764;2023-05-29T10:19:29;28.60;33.30
74657;DHT22;63185;45.642;13.764;2023-05-29T10:21:57;28.60;33.00
74657;DHT22;63185;45.642;13.764;2023-05-29T10:24:26;28.60;33.20
74657;DHT22;63185;45.642;13.764;2023-05-29T10:26:52;28.60;33.00
74657;DHT22;63185;45.642;13.764;2023-05-29T10:29:31;28.70;32.40
74657;DHT22;63185;45.642;13.764;2023-05-29T10:35:14;28.80;33.30
74657;DHT22;63185;45.642;13.764;2023-05-29T10:40:23;29.10;32.50
74657;DHT22;63185;45.642;13.764;2023-05-29T10:42:50;29.20;32.20
74657;DHT22;63185;45.642;13.764;2023-05-29T10:53:06;29.10;30.20
74657;DHT22;63185;45.642;13.764;2023-05-29T10:55:35;29.20;30.70
74657;DHT22;63185;45.642;13.764;2023-05-29T10:58:08;29.20;30.20
74657;DHT22;63185;45.642;13.764;2023-05-29T11:00:40;29.20;30.40
74657;DHT22;63185;45.642;13.764;2023-05-29T11:03:10;29.20;30.40
74657;DHT22;63185;45.642;13.764;2023-05-29T11:05:58;29.20;29.90
74657;DHT22;63185;45.642;13.764;2023-05-29T11:08:35;29.40;30.10
74657;DHT22;63185;45.642;13.764;2023-05-29T11:11:02;29.40;30.40
74657;DHT22;63185;45.642;13.764;2023-05-29T11:13:35;29.40;29.70
74657;DHT22;63185;45.642;13.764;2023-05-29T11:18:47;29.60;30.10
74657;DHT22;63185;45.642;13.764;2023-05-29T11:26:45;30.00;29.50
74657;DHT22;63185;45.642;13.764;2023-05-29T11:29:11;30.10;29.40
74657;DHT22;63185;45.642;13.764;2023-05-29T11:31:40;30.10;29.00
74657;DHT22;63185;45.642;13.764;2023-05-29T11:34:09;30.10;29.90
74657;DHT22;63185;45.642;13.764;2023-05-29T11:36:40;30.20;30.30
74657;DHT22;63185;45.642;13.764;2023-05-29T11:39:09;30.30;28.40
74657;DHT22;63185;45.642;13.764;2023-05-29T11:41:35;30.20;28.80
74657;DHT22;63185;45.642;13.764;2023-05-29T11:44:02;30.10;29.60
74657;DHT22;63185;45.642;13.764;2023-05-29T11:46:31;30.10;27.90
74657;DHT22;63185;45.642;13.764;2023-05-29T11:48:58;30.20;29.30
74657;DHT22;63185;45.642;13.764;2023-05-29T11:51:24;30.10;29.60
74657;DHT22;63185;45.642;13.764;2023-05-29T11:53:50;30.30;27.90
74657;DHT22;63185;45.642;13.764;2023-05-29T11:56:18;30.30;28.00
74657;DHT22;63185;45.642;13.764;2023-05-29T11:58:45;30.30;28.90
74657;DHT22;63185;45.642;13.764;2023-05-29T12:01:11;30.20;30.10
74657;DHT22;63185;45.642;13.764;2023-05-29T12:03:41;30.30;30.00
74657;DHT22;63185;45.642;13.764;2023-05-29T12:06:08;30.40;29.30
74657;DHT22;63185;45.642;13.764;2023-05-29T12:08:35;30.40;30.00
74657;DHT22;63185;45.642;13.764;2023-05-29T12:11:00;30.50;29.10
74657;DHT22;63185;45.642;13.764;2023-05-29T12:13:26;30.60;29.90
74657;DHT22;63185;45.642;13.764;2023-05-29T12:15:55;30.70;29.80
74657;DHT22;63185;45.642;13.764;2023-05-29T12:18:22;30.60;30.10
74657;DHT22;63185;45.642;13.764;2023-05-29T12:20:47;30.60;29.50
74657;DHT22;63185;45.642;13.764;2023-05-29T12:23:13;30.40;30.00
74657;DHT22;63185;45.642;13.764;2023-05-29T12:25:39;30.40;30.00
74657;DHT22;63185;45.642;13.764;2023-05-29T12:28:05;30.40;30.40
74657;DHT22;63185;45.642;13.764;2023-05-29T12:30:37;30.40;30.40
74657;DHT22;63185;45.642;13.764;2023-05-29T12:33:03;30.40;30.10
74657;DHT22;63185;45.642;13.764;2023-05-29T12:35:31;30.30;29.90
74657;DHT22;63185;45.642;13.764;2023-05-29T12:38:02;30.40;29.70
74657;DHT22;63185;45.642;13.764;2023-05-29T12:40:29;30.30;31.30
74657;DHT22;63185;45.642;13.764;2023-05-29T12:45:25;30.10;29.80
74657;DHT22;63185;45.642;13.764;2023-05-29T12:47:59;30.20;29.50
74657;DHT22;63185;45.642;13.764;2023-05-29T12:50:40;30.40;30.50
74657;DHT22;63185;45.642;13.764;2023-05-29T12:53:11;30.60;31.00
74657;DHT22;63185;45.642;13.764;2023-05-29T12:55:39;30.80;30.10
74657;DHT22;63185;45.642;13.764;2023-05-29T12:58:12;31.00;29.40
74657;DHT22;63185;45.642;13.764;2023-05-29T13:00:43;31.10;30.50
74657;DHT22;63185;45.642;13.764;2023-05-29T13:03:10;31.30;30.20
74657;DHT22;63185;45.642;13.764;2023-05-29T13:05:38;31.30;29.40
74657;DHT22;63185;45.642;13.764;2023-05-29T13:08:04;31.30;28.30
74657;DHT22;63185;45.642;13.764;2023-05-29T13:10:32;31.40;27.80
74657;DHT22;63185;45.642;13.764;2023-05-29T13:12:59;31.60;27.60
74657;DHT22;63185;45.642;13.764;2023-05-29T13:15:26;31.70;28.30
74657;DHT22;63185;45.642;13.764;2023-05-29T13:17:52;31.70;29.50
74657;DHT22;63185;45.642;13.764;2023-05-29T13:20:19;31.80;28.50
74657;DHT22;63185;45.642;13.764;2023-05-29T13:22:47;31.90;28.80
74657;DHT22;63185;45.642;13.764;2023-05-29T13:25:15;32.00;27.80
74657;DHT22;63185;45.642;13.764;2023-05-29T13:27:43;32.00;27.60
74657;DHT22;63185;45.642;13.764;2023-05-29T13:30:10;32.00;27.50
74657;DHT22;63185;45.642;13.764;2023-05-29T13:32:36;32.30;26.30
74657;DHT22;63185;45.642;13.764;2023-05-29T13:35:02;32.30;25.90
74657;DHT22;63185;45.642;13.764;2023-05-29T13:37:28;32.40;26.40
74657;DHT22;63185;45.642;13.764;2023-05-29T13:39:55;32.40;25.20
74657;DHT22;63185;45.642;13.764;2023-05-29T13:42:21;32.40;25.90
74657;DHT22;63185;45.642;13.764;2023-05-29T13:44:47;32.60;25.80
74657;DHT22;63185;45.642;13.764;2023-05-29T13:47:14;32.50;24.40
74657;DHT22;63185;45.642;13.764;2023-05-29T13:49:39;32.40;25.20
74657;DHT22;63185;45.642;13.764;2023-05-29T13:52:05;32.00;24.30
74657;DHT22;63185;45.642;13.764;2023-05-29T13:54:31;32.10;26.00
74657;DHT22;63185;45.642;13.764;2023-05-29T13:57:04;32.50;27.30
74657;DHT22;63185;45.642;13.764;2023-05-29T13:59:33;32.80;25.80
74657;DHT22;63185;45.642;13.764;2023-05-29T14:02:00;32.90;24.30
74657;DHT22;63185;45.642;13.764;2023-05-29T14:04:26;33.10;24.30
74657;DHT22;63185;45.642;13.764;2023-05-29T14:06:52;33.20;25.40
74657;DHT22;63185;45.642;13.764;2023-05-29T14:09:18;33.30;24.60
74657;DHT22;63185;45.642;13.764;2023-05-29T14:11:55;33.60;23.20
74657;DHT22;63185;45.642;13.764;2023-05-29T14:14:21;33.90;22.50
74657;DHT22;63185;45.642;13.764;2023-05-29T14:16:48;33.90;24.30
74657;DHT22;63185;45.642;13.764;2023-05-29T14:19:14;33.70;23.70
74657;DHT22;63185;45.642;13.764;2023-05-29T14:21:40;33.90;24.80
74657;DHT22;63185;45.642;13.764;2023-05-29T14:24:06;34.20;23.10
74657;DHT22;63185;45.642;13.764;2023-05-29T14:26:32;34.50;22.70
74657;DHT22;63185;45.642;13.764;2023-05-29T14:28:58;34.20;23.40
74657;DHT22;63185;45.642;13.764;2023-05-29T14:31:24;34.20;24.60
74657;DHT22;63185;45.642;13.764;2023-05-29T14:33:49;34.50;24.60
74657;DHT22;63185;45.642;13.764;2023-05-29T14:36:15;34.60;22.40
74657;DHT22;63185;45.642;13.764;2023-05-29T14:38:41;34.80;23.50
74657;DHT22;63185;45.642;13.764;2023-05-29T14:41:08;34.90;23.30
74657;DHT22;63185;45.642;13.764;2023-05-29T14:43:34;35.10;22.20
74657;DHT22;63185;45.642;13.764;2023-05-29T14:45:59;35.10;21.10
74657;DHT22;63185;45.642;13.764;2023-05-29T14:48:25;35.00;21.70
74657;DHT22;63185;45.642;13.764;2023-05-29T14:50:51;35.00;20.80
74657;DHT22;63185;45.642;13.764;2023-05-29T14:53:17;34.80;21.80
74657;DHT22;63185;45.642;13.764;2023-05-29T14:55:43;34.90;21.70
74657;DHT22;63185;45.642;13.764;2023-05-29T14:58:08;34.90;22.50
74657;DHT22;63185;45.642;13.764;2023-05-29T15:00:34;35.30;22.40
74657;DHT22;63185;45.642;13.764;2023-05-29T15:03:00;35.80;20.60
74657;DHT22;63185;45.642;13.764;2023-05-29T15:05:26;35.60;20.10
74657;DHT22;63185;45.642;13.764;2023-05-29T15:07:52;34.70;20.90
74657;DHT22;63185;45.642;13.764;2023-05-29T15:10:20;34.70;22.10
74657;DHT22;63185;45.642;13.764;2023-05-29T15:12:46;35.10;21.60
74657;DHT22;63185;45.642;13.764;2023-05-29T15:15:12;35.00;21.20
74657;DHT22;63185;45.642;13.764;2023-05-29T15:17:38;35.50;22.00
74657;DHT22;63185;45.642;13.764;2023-05-29T15:20:05;36.20;22.60
74657;DHT22;63185;45.642;13.764;2023-05-29T15:22:31;36.90;20.10
74657;DHT22;63185;45.642;13.764;2023-05-29T15:24:57;37.10;19.40
74657;DHT22;63185;45.642;13.764;2023-05-29T15:27:22;37.40;19.10
74657;DHT22;63185;45.642;13.764;2023-05-29T15:29:52;37.60;19.50
74657;DHT22;63185;45.642;13.764;2023-05-29T15:32:18;38.10;19.60
74657;DHT22;63185;45.642;13.764;2023-05-29T15:34:43;39.10;20.10
74657;DHT22;63185;45.642;13.764;2023-05-29T15:37:09;40.10;18.90
74657;DHT22;63185;45.642;13.764;2023-05-29T15:39:35;40.80;18.90
74657;DHT22;63185;45.642;13.764;2023-05-29T15:42:03;41.70;18.00
74657;DHT22;63185;45.642;13.764;2023-05-29T15:44:29;42.30;17.30
74657;DHT22;63185;45.642;13.764;2023-05-29T15:46:54;41.70;16.50